Aérodrome :
LOGIN :

S'inscrire | Disclaimer

   EN    FR    IT 

 










Légende :    VFR   VFR Marginal   IFR   IFR Intensif   IFR Très Intensif
Visi : 
Plafond : 
>= 8 km
>= 3000ft
5 à 8 km
1000 à 3000 ft
1500m à 5 km
500 à 1000 ft
800 à 1500m
200 à 500 ft
< 800m
< 200 ft
Symboles :   Orages  Brouillard  Fortes neiges  Fortes précipitations  Vent > 20 kt
SIGMETs :   Divers  Orages  Givrage  Turbulence  Onde Orograph.  Cendres Volcan.







- Altitude de l'aérodrome : 32 ft
- Code IATA : LKZ


EGUL - RAF Lakenheath

DERNIER METAR :
  • 240200Z AUTO 17007G24KT 9999 -RA FEW023 BKN100 23/20 A2988 RMK AO2 LTG DSNT SW-N RAB0156 TSE00 PRESFR SLP121 $

METARs EXPIRÉS :
  • 240157Z AUTO 20011G24KT 9999 -TSRA BKN100 23/19 A2990 RMK AO2 RAB56 SLP128 $
  • 240145Z AUTO 20009KT 9999 TS SCT100 SCT130 22/19 A2988 RMK AO2 TSB27E42TSB45 SLP121 $
  • 240127Z AUTO 12009KT 9999 TS CLR 22/19 A2984 RMK AO2 TSB27 SLP107 $
  • 240056Z AUTO 11010KT 9999 FEW150 22/19 A2986 RMK AO2 LTG DSNT SW SLP114 T02180190 $
  • 232356Z AUTO 11012G17KT 9999 CLR 22/17 A2987 RMK AO2 SLP118 T02170168 10301 20217 403220147 57027 $

TAF AMD TAF EGUL
Valide du 24 à 01h jusqu'au 25 à 03h UTC


240152Z 2401/2503 19012KT 9999 SCT100 QNH2982INS
TEMPO 2401/2408 19012G20KT 8000 -TSRA BKN080CB
BECMG 2411/2412 26009KT 9999 NSW SCT050 QNH2987INS TX32/2415Z TN22/2402Z
Pas de NOTAMs connus pour ce terrain.
2 SIGMETs publiés pour la FIR London (EGTT) :
 
Orages fréquents avec grêle
EGTT SIGMET 03 VALID 232304/240300 EGRR
EGTT LONDON FIR FRQ TSGR FCST WI N5000 W00200 - N4940 W00345 - N5056 W00451 - N5206 W00307 - N5010 E00012 - N5000 W00015 - N5000 W00200 TOP FL380 MOV N 45KT NC=
Orages fréquents avec grêle
EGTT SIGMET 01 VALID 240104/240300 EGRR
EGTT LONDON FIR FRQ TSGR FCST WI N5417 W00208 - N5445 W00412 - N5500 W00400 - N5500 W00143 - N5417 W00208 TOP FL380 MOV N 40KT NC=



MET'MAP, la Météo Aéronautique d'un coup d'oeil ! - Copyright ORBIFLY Décembre 2007 - Disclaimer

ORBIFLY MET'MAP TEAM :

Programmation & Développement : Alexandra Zaïnal
Conception & Développement : Baudouin d'Aumeries
Co-Programmation & Développement : Marc-Olivier Méhu
Soutien technique & logistique : Manuel Goepfert

Contact : metmap@orbifly.com




SOURCES & CREDITS :

   NOAA